Adelphi, Maryland
Current Conditions -  °F | °C
As of 10:10 AM on Friday 19 Dec 2014 (Local Time) from KCGS Reporting Station
Overcast Overcast  
Wind Chill: 29°   Ceiling: 3300
Heat Index: 36°   Visibility: 10mi
Dew Point: 27°   Wind: 8mph
Humidity: 70%   Direction: 320°NW
Pressure: 30.18"   Gusts: NA
Location:  39°N, 76.97°W
Report Text: KCGS 191510Z AUTO 32007KT 290V350 10SM OVC033 02/M03 A3018 RMK AO1
Loading
Personal Weather Stations






























Interactive Weather Map New forecast layout! Learn more

10-Day Weather Forecast

Advertisements
Track Severe Weather on mobile